Time,TemperatureF,DewpointF,PressureIn,WindDirection,WindDirectionDegrees,WindSpeedMPH,WindSpeedGustMPH,Humidity,HourlyPrecipIn,Conditions,Clouds,dailyrainin,SolarRadiationWatts/m^2,SoftwareType,DateUTC
2013-02-18 00:03:00,22.9,20.0,30.25,WSW,250,2.0,-999.0,90,-99.99,,,0.00,0,weatherlink.com 1.10,2013-02-18 07:03:00,
2013-02-18 00:17:00,22.2,20.0,30.25,WSW,250,2.0,-999.0,90,-99.99,,,0.00,0,weatherlink.com 1.10,2013-02-18 07:17:00,
2013-02-18 00:32:00,21.8,19.0,30.26,WSW,248,3.0,-999.0,89,-99.99,,,0.00,0,weatherlink.com 1.10,2013-02-18 07:32:00,
2013-02-18 00:47:00,19.9,17.0,30.27,North,9,3.0,-999.0,87,-99.99,,,0.00,0,weatherlink.com 1.10,2013-02-18 07:47:00,
2013-02-18 01:03:00,17.6,15.0,30.27,NE,40,5.0,-999.0,88,-99.99,,,0.00,0,weatherlink.com 1.10,2013-02-18 08:03:00,
2013-02-18 01:18:00,19.3,17.0,30.27,NE,40,3.0,-999.0,90,-99.99,,,0.00,0,weatherlink.com 1.10,2013-02-18 08:18:00,
2013-02-18 01:33:00,20.0,18.0,30.28,NE,40,0.0,-999.0,90,-99.99,,,0.00,0,weatherlink.com 1.10,2013-02-18 08:33:00,
2013-02-18 01:48:00,20.1,17.0,30.29,NE,40,0.0,-999.0,88,-99.99,,,0.00,0,weatherlink.com 1.10,2013-02-18 08:48:00,
2013-02-18 02:03:00,19.3,16.0,30.29,NE,40,0.0,-999.0,88,-99.99,,,0.00,0,weatherlink.com 1.10,2013-02-18 09:03:00,
2013-02-18 02:18:00,18.9,16.0,30.29,NE,40,0.0,-999.0,88,-99.99,,,0.00,0,weatherlink.com 1.10,2013-02-18 09:18:00,
2013-02-18 02:33:00,18.9,16.0,30.30,NE,40,0.0,-999.0,89,-99.99,,,0.00,0,weatherlink.com 1.10,2013-02-18 09:33:00,
2013-02-18 03:03:00,18.6,15.0,30.30,West,263,0.0,-999.0,86,-99.99,,,0.00,0,weatherlink.com 1.10,2013-02-18 10:03:00,
2013-02-18 03:18:00,19.5,14.0,30.29,SW,223,5.0,-999.0,80,-99.99,,,0.00,0,weatherlink.com 1.10,2013-02-18 10:18:00,
2013-02-18 03:33:00,17.5,12.0,30.30,SSW,213,1.0,-999.0,80,-99.99,,,0.00,0,weatherlink.com 1.10,2013-02-18 10:33:00,
2013-02-18 03:48:00,17.2,13.0,30.30,SSW,213,0.0,-999.0,82,-99.99,,,0.00,0,weatherlink.com 1.10,2013-02-18 10:48:00,
2013-02-18 04:03:00,16.7,12.0,30.29,SSW,212,1.0,-999.0,82,-99.99,,,0.00,0,weatherlink.com 1.10,2013-02-18 11:03:00,
2013-02-18 04:18:00,16.7,12.0,30.30,SSW,192,1.0,-999.0,82,-99.99,,,0.00,0,weatherlink.com 1.10,2013-02-18 11:18:00,
2013-02-18 04:33:00,17.0,11.0,30.30,South,180,2.0,-999.0,78,-99.99,,,0.00,0,weatherlink.com 1.10,2013-02-18 11:33:00,
2013-02-18 04:48:00,17.5,11.0,30.30,South,188,1.0,-999.0,75,-99.99,,,0.00,0,weatherlink.com 1.10,2013-02-18 11:48:00,
2013-02-18 05:03:00,18.0,11.0,30.30,SSW,205,2.0,-999.0,73,-99.99,,,0.00,0,weatherlink.com 1.10,2013-02-18 12:03:00,
2013-02-18 05:18:00,16.0,10.0,30.32,South,176,0.0,-999.0,76,-99.99,,,0.00,0,weatherlink.com 1.10,2013-02-18 12:18:00,
2013-02-18 05:33:00,15.6,10.0,30.32,South,176,0.0,-999.0,77,-99.99,,,0.00,0,weatherlink.com 1.10,2013-02-18 12:33:00,
2013-02-18 05:48:00,14.9,9.0,30.31,South,176,0.0,-999.0,77,-99.99,,,0.00,0,weatherlink.com 1.10,2013-02-18 12:48:00,
2013-02-18 06:03:00,15.0,10.0,30.32,West,266,1.0,-999.0,79,-99.99,,,0.00,0,weatherlink.com 1.10,2013-02-18 13:03:00,
2013-02-18 06:18:00,15.6,10.0,30.32,West,266,0.0,-999.0,78,-99.99,,,0.00,0,weatherlink.com 1.10,2013-02-18 13:18:00,
2013-02-18 06:33:00,15.6,9.0,30.32,West,266,0.0,-999.0,76,-99.99,,,0.00,0,weatherlink.com 1.10,2013-02-18 13:33:00,
2013-02-18 06:48:00,15.8,10.0,30.32,West,266,0.0,-999.0,76,-99.99,,,0.00,0,weatherlink.com 1.10,2013-02-18 13:48:00,
2013-02-18 07:03:00,16.5,10.0,30.33,West,266,0.0,-999.0,74,-99.99,,,0.00,0,weatherlink.com 1.10,2013-02-18 14:03:00,
2013-02-18 07:18:00,16.0,8.0,30.34,West,266,0.0,-999.0,72,-99.99,,,0.00,7,weatherlink.com 1.10,2013-02-18 14:18:00,
2013-02-18 07:33:00,14.5,8.0,30.34,WNW,291,2.0,-999.0,74,-99.99,,,0.00,12,weatherlink.com 1.10,2013-02-18 14:33:00,
2013-02-18 07:49:00,14.5,9.0,30.35,WNW,291,0.0,-999.0,78,-99.99,,,0.00,35,weatherlink.com 1.10,2013-02-18 14:49:00,
2013-02-18 08:03:00,15.8,11.0,30.35,NNW,340,0.0,-999.0,82,-99.99,,,0.00,111,weatherlink.com 1.10,2013-02-18 15:03:00,
2013-02-18 08:18:00,19.8,14.0,30.35,NNW,340,0.0,-999.0,79,-99.99,,,0.00,160,weatherlink.com 1.10,2013-02-18 15:18:00,
2013-02-18 08:34:00,21.5,15.0,30.35,North,9,0.0,-999.0,75,-99.99,,,0.00,216,weatherlink.com 1.10,2013-02-18 15:34:00,
2013-02-18 08:49:00,23.6,16.0,30.36,North,9,0.0,-999.0,72,-99.99,,,0.00,260,weatherlink.com 1.10,2013-02-18 15:49:00,
2013-02-18 09:04:00,19.8,12.0,30.36,North,9,0.0,-999.0,73,-99.99,,,0.00,308,weatherlink.com 1.10,2013-02-18 16:04:00,
2013-02-18 09:19:00,18.9,13.0,30.36,NE,36,0.0,-999.0,78,-99.99,,,0.00,353,weatherlink.com 1.10,2013-02-18 16:19:00,
2013-02-18 09:34:00,20.0,14.0,30.37,ENE,71,0.0,-999.0,76,-99.99,,,0.00,403,weatherlink.com 1.10,2013-02-18 16:34:00,
2013-02-18 09:49:00,21.8,14.0,30.36,ENE,71,0.0,-999.0,72,-99.99,,,0.00,454,weatherlink.com 1.10,2013-02-18 16:49:00,
2013-02-18 10:49:00,27.8,18.0,30.37,ENE,72,3.0,-999.0,66,-99.99,,,0.00,578,weatherlink.com 1.10,2013-02-18 17:49:00,
2013-02-18 11:19:00,27.4,18.0,30.37,ENE,76,5.0,-999.0,68,-99.99,,,0.00,621,weatherlink.com 1.10,2013-02-18 18:19:00,
2013-02-18 11:34:00,27.8,18.0,30.38,ESE,109,2.0,-999.0,67,-99.99,,,0.00,638,weatherlink.com 1.10,2013-02-18 18:34:00,
2013-02-18 11:49:00,27.9,18.0,30.38,SE,138,5.0,-999.0,67,-99.99,,,0.00,652,weatherlink.com 1.10,2013-02-18 18:49:00,
2013-02-18 12:05:00,27.7,18.0,30.37,SE,131,5.0,-999.0,68,-99.99,,,0.00,659,weatherlink.com 1.10,2013-02-18 19:05:00,
2013-02-18 12:19:00,28.8,17.0,30.37,ESE,120,5.0,-999.0,62,-99.99,,,0.00,664,weatherlink.com 1.10,2013-02-18 19:19:00,
2013-02-18 12:35:00,29.2,18.0,30.36,SE,143,5.0,-999.0,63,-99.99,,,0.00,668,weatherlink.com 1.10,2013-02-18 19:35:00,
2013-02-18 12:50:00,29.7,16.0,30.36,ESE,117,7.0,-999.0,58,-99.99,,,0.00,666,weatherlink.com 1.10,2013-02-18 19:50:00,
2013-02-18 13:05:00,29.9,17.0,30.35,ESE,108,4.0,-999.0,58,-99.99,,,0.00,657,weatherlink.com 1.10,2013-02-18 20:05:00,
2013-02-18 13:20:00,29.9,17.0,30.35,ESE,121,5.0,-999.0,59,-99.99,,,0.00,649,weatherlink.com 1.10,2013-02-18 20:20:00,
2013-02-18 13:35:00,30.2,16.0,30.35,ESE,109,2.0,-999.0,56,-99.99,,,0.00,633,weatherlink.com 1.10,2013-02-18 20:35:00,
2013-02-18 13:50:00,30.3,15.0,30.35,ESE,118,8.0,-999.0,53,-99.99,,,0.00,617,weatherlink.com 1.10,2013-02-18 20:50:00,
2013-02-18 14:05:00,30.6,16.0,30.35,SSE,153,4.0,-999.0,54,-99.99,,,0.00,596,weatherlink.com 1.10,2013-02-18 21:05:00,
2013-02-18 14:20:00,30.9,15.0,30.36,ESE,120,5.0,-999.0,51,-99.99,,,0.00,471,weatherlink.com 1.10,2013-02-18 21:20:00,
2013-02-18 14:35:00,30.6,14.0,30.36,SE,144,6.0,-999.0,51,-99.99,,,0.00,545,weatherlink.com 1.10,2013-02-18 21:35:00,
2013-02-18 14:50:00,30.8,14.0,30.36,SE,128,11.0,-999.0,51,-99.99,,,0.00,513,weatherlink.com 1.10,2013-02-18 21:50:00,
2013-02-18 15:20:00,31.2,13.0,30.36,ESE,110,6.0,-999.0,48,-99.99,,,0.00,443,weatherlink.com 1.10,2013-02-18 22:20:00,
2013-02-18 15:35:00,31.0,12.0,30.36,SE,128,6.0,-999.0,46,-99.99,,,0.00,403,weatherlink.com 1.10,2013-02-18 22:35:00,
2013-02-18 15:50:00,31.3,11.0,30.36,SE,138,5.0,-999.0,43,-99.99,,,0.00,359,weatherlink.com 1.10,2013-02-18 22:50:00,
2013-02-18 16:05:00,31.4,11.0,30.35,SE,129,5.0,-999.0,43,-99.99,,,0.00,272,weatherlink.com 1.10,2013-02-18 23:05:00,
2013-02-18 16:20:00,31.3,11.0,30.35,ESE,102,7.0,-999.0,43,-99.99,,,0.00,230,weatherlink.com 1.10,2013-02-18 23:20:00,
2013-02-18 16:35:00,31.1,10.0,30.34,SE,126,5.0,-999.0,42,-99.99,,,0.00,167,weatherlink.com 1.10,2013-02-18 23:35:00,
2013-02-18 16:50:00,30.5,12.0,30.35,SSE,148,5.0,-999.0,46,-99.99,,,0.00,86,weatherlink.com 1.10,2013-02-18 23:50:00,
2013-02-18 17:05:00,29.7,12.0,30.34,SE,135,4.0,-999.0,47,-99.99,,,0.00,33,weatherlink.com 1.10,2013-02-19 00:05:00,
2013-02-18 17:20:00,28.7,13.0,30.34,SE,130,5.0,-999.0,51,-99.99,,,0.00,19,weatherlink.com 1.10,2013-02-19 00:20:00,
2013-02-18 17:35:00,28.1,12.0,30.34,ESE,109,1.0,-999.0,51,-99.99,,,0.00,11,weatherlink.com 1.10,2013-02-19 00:35:00,
2013-02-18 17:50:00,27.2,12.0,30.33,ESE,109,2.0,-999.0,52,-99.99,,,0.00,0,weatherlink.com 1.10,2013-02-19 00:50:00,
2013-02-18 18:05:00,24.5,15.0,30.33,ENE,67,5.0,-999.0,67,-99.99,,,0.00,0,weatherlink.com 1.10,2013-02-19 01:05:00,
2013-02-18 18:20:00,23.8,15.0,30.33,ENE,59,3.0,-999.0,69,-99.99,,,0.00,0,weatherlink.com 1.10,2013-02-19 01:20:00,
2013-02-18 18:35:00,21.7,14.0,30.33,ENE,61,4.0,-999.0,72,-99.99,,,0.00,0,weatherlink.com 1.10,2013-02-19 01:35:00,
2013-02-18 18:50:00,20.9,14.0,30.34,NE,56,4.0,-999.0,74,-99.99,,,0.00,0,weatherlink.com 1.10,2013-02-19 01:50:00,
2013-02-18 19:05:00,20.2,13.0,30.34,NE,54,3.0,-999.0,75,-99.99,,,0.00,0,weatherlink.com 1.10,2013-02-19 02:05:00,
2013-02-18 19:20:00,20.0,14.0,30.34,NE,55,3.0,-999.0,77,-99.99,,,0.00,0,weatherlink.com 1.10,2013-02-19 02:20:00,
2013-02-18 19:35:00,20.0,14.0,30.34,ENE,59,3.0,-999.0,77,-99.99,,,0.00,0,weatherlink.com 1.10,2013-02-19 02:35:00,
2013-02-18 19:50:00,19.6,14.0,30.34,ENE,57,5.0,-999.0,77,-99.99,,,0.00,0,weatherlink.com 1.10,2013-02-19 02:50:00,
2013-02-18 20:20:00,18.9,13.0,30.34,ENE,63,2.0,-999.0,78,-99.99,,,0.00,0,weatherlink.com 1.10,2013-02-19 03:20:00,
2013-02-18 20:35:00,18.5,13.0,30.34,NE,56,3.0,-999.0,79,-99.99,,,0.00,0,weatherlink.com 1.10,2013-02-19 03:35:00,
2013-02-18 20:50:00,17.9,13.0,30.34,ENE,57,2.0,-999.0,80,-99.99,,,0.00,0,weatherlink.com 1.10,2013-02-19 03:50:00,
2013-02-18 21:05:00,17.1,12.0,30.34,NE,34,3.0,-999.0,80,-99.99,,,0.00,0,weatherlink.com 1.10,2013-02-19 04:05:00,
2013-02-18 21:20:00,15.9,11.0,30.34,NE,35,4.0,-999.0,81,-99.99,,,0.00,0,weatherlink.com 1.10,2013-02-19 04:20:00,
2013-02-18 21:35:00,16.2,12.0,30.34,NNE,27,2.0,-999.0,82,-99.99,,,0.00,0,weatherlink.com 1.10,2013-02-19 04:35:00,
2013-02-18 21:50:00,16.2,12.0,30.34,North,5,1.0,-999.0,82,-99.99,,,0.00,0,weatherlink.com 1.10,2013-02-19 04:50:00,
2013-02-18 22:05:00,15.7,11.0,30.34,North,360,0.0,-999.0,83,-99.99,,,0.00,0,weatherlink.com 1.10,2013-02-19 05:05:00,
2013-02-18 22:20:00,15.5,12.0,30.34,North,355,0.0,-999.0,85,-99.99,,,0.00,0,weatherlink.com 1.10,2013-02-19 05:20:00,
2013-02-18 22:35:00,15.2,11.0,30.35,North,355,0.0,-999.0,84,-99.99,,,0.00,0,weatherlink.com 1.10,2013-02-19 05:35:00,
2013-02-18 22:50:00,14.6,11.0,30.35,North,355,0.0,-999.0,84,-99.99,,,0.00,0,weatherlink.com 1.10,2013-02-19 05:50:00,
2013-02-18 23:05:00,14.3,11.0,30.35,NNE,19,2.0,-999.0,85,-99.99,,,0.00,0,weatherlink.com 1.10,2013-02-19 06:05:00,
2013-02-18 23:20:00,14.8,11.0,30.35,NNE,19,0.0,-999.0,86,-99.99,,,0.00,0,weatherlink.com 1.10,2013-02-19 06:20:00,
2013-02-18 23:35:00,15.4,12.0,30.35,East,100,0.0,-999.0,86,-99.99,,,0.00,0,weatherlink.com 1.10,2013-02-19 06:35:00,
2013-02-18 23:50:00,15.6,12.0,30.35,East,100,0.0,-999.0,84,-99.99,,,0.00,0,weatherlink.com 1.10,2013-02-19 06:50:00,